KVEL

Vernal Regional Airport

Vernal, Utah, USA
KVEL 210531Z 2106/2206 30005KT P6SM SKC FM211500 VRB03KT P6SM SKC FM212000 21008KT P6SM FEW250 FM220100 32008KT P6SM FEW140 SCT250 FM220500 36007KT P6SM FEW130 SCT200
Issued Valid From Valid To
Jun-21 @ 05:31 UTC
(5 hours ago)
Jun-21 @ 06:00 UTC
(4 hours ago)
Jun-22 @ 06:00 UTC
(in 20 hours)
Jun-21 @ 06:00 to Jun-21 @ 15:00
KVEL 210531Z 2106/2206 30005KT P6SM SKC
Wind Visibility Clouds
300° at 5 knots Greater than 6 miles
  • Clear skies
From Jun-21 @ 15:00 to Jun-21 @ 20:00
FM211500 VRB03KT P6SM SKC
Wind Visibility Clouds
Variable at 3 knots Greater than 6 miles
  • Clear skies
From Jun-21 @ 20:00 to Jun-22 @ 01:00
FM212000 21008KT P6SM FEW250
Wind Visibility Clouds
210° at 8 knots Greater than 6 miles
  • Few at 25,000' AGL
From Jun-22 @ 01:00 to Jun-22 @ 05:00
FM220100 32008KT P6SM FEW140 SCT250
Wind Visibility Clouds
320° at 8 knots Greater than 6 miles
  • Few at 14,000' AGL
  • Scattered at 25,000' AGL
From Jun-22 @ 05:00 to Jun-22 @ 06:00
FM220500 36007KT P6SM FEW130 SCT200
Wind Visibility Clouds
360° at 7 knots Greater than 6 miles
  • Few at 13,000' AGL
  • Scattered at 20,000' AGL
KVEL 210531Z 2106/2206 30005KT P6SM SKC FM211500 VRB03KT P6SM SKC FM212000 21008KT P6SM FEW250 FM220100 32008KT P6SM FEW140 SCT250 FM220500 36007KT P6SM FEW130 SCT200
Issued Jun-21 @ 05:31 UTC
(5 hours ago)
Valid From Jun-21 @ 06:00 UTC
(4 hours ago)
Valid To Jun-22 @ 06:00 UTC
(in 20 hours)
Jun-21 @ 06:00 - Jun-21 @ 15:00
Wind Visibility
300° at 5 knots Greater than 6 miles
Clouds
  • Clear skies
From Jun-21 @ 15:00 - Jun-21 @ 20:00
Wind Visibility
Variable at 3 knots Greater than 6 miles
Clouds
  • Clear skies
From Jun-21 @ 20:00 - Jun-22 @ 01:00
Wind Visibility
210° at 8 knots Greater than 6 miles
Clouds
  • Few at 25,000' AGL
From Jun-22 @ 01:00 - Jun-22 @ 05:00
Wind Visibility
320° at 8 knots Greater than 6 miles
Clouds
  • Few at 14,000' AGL
  • Scattered at 25,000' AGL
From Jun-22 @ 05:00 - Jun-22 @ 06:00
Wind Visibility
360° at 7 knots Greater than 6 miles
Clouds
  • Few at 13,000' AGL
  • Scattered at 20,000' AGL